sensor_id;sensor_type;location;lat;lon;timestamp;P1;durP1;ratioP1;P2;durP2;ratioP2
8871;SDS011;4472;52.092;9.820;2023-05-07T00:00:57;35.27;;;25.47;;
8871;SDS011;4472;52.092;9.820;2023-05-07T00:03:45;37.60;;;25.87;;
8871;SDS011;4472;52.092;9.820;2023-05-07T00:06:37;37.67;;;26.70;;
8871;SDS011;4472;52.092;9.820;2023-05-07T00:09:24;36.97;;;27.97;;
8871;SDS011;4472;52.092;9.820;2023-05-07T00:12:11;39.43;;;27.83;;
8871;SDS011;4472;52.092;9.820;2023-05-07T00:14:58;36.37;;;27.40;;
8871;SDS011;4472;52.092;9.820;2023-05-07T00:17:46;36.47;;;27.30;;
8871;SDS011;4472;52.092;9.820;2023-05-07T00:20:33;37.93;;;27.63;;
8871;SDS011;4472;52.092;9.820;2023-05-07T00:23:21;38.20;;;28.20;;
8871;SDS011;4472;52.092;9.820;2023-05-07T00:26:08;38.00;;;26.77;;
8871;SDS011;4472;52.092;9.820;2023-05-07T00:28:56;39.77;;;27.77;;
8871;SDS011;4472;52.092;9.820;2023-05-07T00:31:43;40.47;;;27.37;;
8871;SDS011;4472;52.092;9.820;2023-05-07T00:34:30;38.53;;;28.57;;
8871;SDS011;4472;52.092;9.820;2023-05-07T00:37:18;40.33;;;28.87;;
8871;SDS011;4472;52.092;9.820;2023-05-07T00:40:07;40.23;;;29.33;;
8871;SDS011;4472;52.092;9.820;2023-05-07T00:42:55;42.00;;;28.30;;
8871;SDS011;4472;52.092;9.820;2023-05-07T00:45:43;44.80;;;30.77;;
8871;SDS011;4472;52.092;9.820;2023-05-07T00:48:30;46.37;;;30.77;;
8871;SDS011;4472;52.092;9.820;2023-05-07T00:51:18;44.40;;;30.27;;
8871;SDS011;4472;52.092;9.820;2023-05-07T00:54:06;44.00;;;30.23;;
8871;SDS011;4472;52.092;9.820;2023-05-07T00:56:55;46.50;;;30.17;;
8871;SDS011;4472;52.092;9.820;2023-05-07T00:59:42;44.23;;;30.40;;
8871;SDS011;4472;52.092;9.820;2023-05-07T01:02:30;42.73;;;30.97;;
8871;SDS011;4472;52.092;9.820;2023-05-07T01:05:17;44.60;;;30.77;;
8871;SDS011;4472;52.092;9.820;2023-05-07T01:08:06;44.40;;;31.20;;
8871;SDS011;4472;52.092;9.820;2023-05-07T01:10:53;44.57;;;30.20;;
8871;SDS011;4472;52.092;9.820;2023-05-07T01:13:43;42.03;;;29.47;;
8871;SDS011;4472;52.092;9.820;2023-05-07T01:16:30;49.07;;;30.90;;
8871;SDS011;4472;52.092;9.820;2023-05-07T01:19:18;47.30;;;31.20;;
8871;SDS011;4472;52.092;9.820;2023-05-07T01:22:07;44.27;;;30.53;;
8871;SDS011;4472;52.092;9.820;2023-05-07T01:24:57;45.47;;;30.73;;
8871;SDS011;4472;52.092;9.820;2023-05-07T01:27:46;48.83;;;31.03;;
8871;SDS011;4472;52.092;9.820;2023-05-07T01:30:34;46.23;;;30.47;;
8871;SDS011;4472;52.092;9.820;2023-05-07T01:33:22;46.50;;;30.97;;
8871;SDS011;4472;52.092;9.820;2023-05-07T01:36:11;45.80;;;30.50;;
8871;SDS011;4472;52.092;9.820;2023-05-07T01:38:59;45.77;;;29.90;;
8871;SDS011;4472;52.092;9.820;2023-05-07T01:41:49;47.30;;;30.47;;
8871;SDS011;4472;52.092;9.820;2023-05-07T01:44:36;44.80;;;29.63;;
8871;SDS011;4472;52.092;9.820;2023-05-07T01:47:24;45.50;;;29.60;;
8871;SDS011;4472;52.092;9.820;2023-05-07T01:50:12;48.60;;;30.33;;
8871;SDS011;4472;52.092;9.820;2023-05-07T01:53:00;45.53;;;30.00;;
8871;SDS011;4472;52.092;9.820;2023-05-07T01:55:48;46.27;;;30.50;;
8871;SDS011;4472;52.092;9.820;2023-05-07T01:58:36;41.70;;;27.77;;
8871;SDS011;4472;52.092;9.820;2023-05-07T02:01:24;43.20;;;27.57;;
8871;SDS011;4472;52.092;9.820;2023-05-07T02:04:11;43.37;;;28.00;;
8871;SDS011;4472;52.092;9.820;2023-05-07T02:06:58;44.47;;;28.43;;
8871;SDS011;4472;52.092;9.820;2023-05-07T02:09:45;41.90;;;28.17;;
8871;SDS011;4472;52.092;9.820;2023-05-07T02:12:32;41.50;;;27.17;;
8871;SDS011;4472;52.092;9.820;2023-05-07T02:15:20;40.60;;;27.23;;
8871;SDS011;4472;52.092;9.820;2023-05-07T02:18:08;40.27;;;26.80;;
8871;SDS011;4472;52.092;9.820;2023-05-07T02:20:55;42.87;;;26.50;;
8871;SDS011;4472;52.092;9.820;2023-05-07T02:23:42;40.43;;;27.03;;
8871;SDS011;4472;52.092;9.820;2023-05-07T02:26:29;40.27;;;27.57;;
8871;SDS011;4472;52.092;9.820;2023-05-07T02:29:17;40.00;;;26.13;;
8871;SDS011;4472;52.092;9.820;2023-05-07T02:32:05;35.90;;;24.90;;
8871;SDS011;4472;52.092;9.820;2023-05-07T02:34:52;38.20;;;24.97;;
8871;SDS011;4472;52.092;9.820;2023-05-07T02:37:39;39.50;;;25.80;;
8871;SDS011;4472;52.092;9.820;2023-05-07T02:40:26;34.67;;;24.07;;
8871;SDS011;4472;52.092;9.820;2023-05-07T02:43:14;39.10;;;25.33;;
8871;SDS011;4472;52.092;9.820;2023-05-07T02:46:01;34.73;;;23.67;;
8871;SDS011;4472;52.092;9.820;2023-05-07T02:48:50;39.53;;;23.03;;
8871;SDS011;4472;52.092;9.820;2023-05-07T02:51:37;32.60;;;22.07;;
8871;SDS011;4472;52.092;9.820;2023-05-07T02:54:24;30.97;;;22.80;;
8871;SDS011;4472;52.092;9.820;2023-05-07T02:57:11;35.73;;;23.53;;
8871;SDS011;4472;52.092;9.820;2023-05-07T02:59:58;33.03;;;22.20;;
8871;SDS011;4472;52.092;9.820;2023-05-07T03:02:46;33.97;;;21.93;;
8871;SDS011;4472;52.092;9.820;2023-05-07T03:05:34;31.17;;;22.27;;
8871;SDS011;4472;52.092;9.820;2023-05-07T03:08:21;31.30;;;20.43;;
8871;SDS011;4472;52.092;9.820;2023-05-07T03:11:09;31.67;;;21.50;;
8871;SDS011;4472;52.092;9.820;2023-05-07T03:13:56;32.53;;;20.97;;
8871;SDS011;4472;52.092;9.820;2023-05-07T03:16:43;30.10;;;21.00;;
8871;SDS011;4472;52.092;9.820;2023-05-07T03:19:30;27.73;;;19.80;;
8871;SDS011;4472;52.092;9.820;2023-05-07T03:22:19;28.07;;;19.07;;
8871;SDS011;4472;52.092;9.820;2023-05-07T03:25:06;25.93;;;19.07;;
8871;SDS011;4472;52.092;9.820;2023-05-07T03:27:55;25.70;;;18.93;;
8871;SDS011;4472;52.092;9.820;2023-05-07T03:30:42;27.77;;;19.60;;
8871;SDS011;4472;52.092;9.820;2023-05-07T03:33:29;23.27;;;18.23;;
8871;SDS011;4472;52.092;9.820;2023-05-07T03:36:19;23.60;;;18.20;;
8871;SDS011;4472;52.092;9.820;2023-05-07T03:39:08;25.00;;;18.70;;
8871;SDS011;4472;52.092;9.820;2023-05-07T03:41:55;25.40;;;19.23;;
8871;SDS011;4472;52.092;9.820;2023-05-07T03:44:43;24.60;;;17.83;;
8871;SDS011;4472;52.092;9.820;2023-05-07T03:47:30;23.33;;;17.63;;
8871;SDS011;4472;52.092;9.820;2023-05-07T03:50:17;30.60;;;18.33;;
8871;SDS011;4472;52.092;9.820;2023-05-07T03:53:04;24.97;;;17.63;;
8871;SDS011;4472;52.092;9.820;2023-05-07T03:55:52;23.30;;;18.03;;
8871;SDS011;4472;52.092;9.820;2023-05-07T03:58:40;24.53;;;17.90;;
8871;SDS011;4472;52.092;9.820;2023-05-07T04:01:27;26.03;;;17.80;;
8871;SDS011;4472;52.092;9.820;2023-05-07T04:04:14;25.30;;;18.23;;
8871;SDS011;4472;52.092;9.820;2023-05-07T04:07:02;24.27;;;17.83;;
8871;SDS011;4472;52.092;9.820;2023-05-07T04:09:49;26.47;;;18.20;;
8871;SDS011;4472;52.092;9.820;2023-05-07T04:12:38;22.77;;;17.40;;
8871;SDS011;4472;52.092;9.820;2023-05-07T04:15:25;24.63;;;18.37;;
8871;SDS011;4472;52.092;9.820;2023-05-07T04:18:12;24.27;;;17.73;;
8871;SDS011;4472;52.092;9.820;2023-05-07T04:20:59;25.00;;;18.27;;
8871;SDS011;4472;52.092;9.820;2023-05-07T04:23:46;23.13;;;17.77;;
8871;SDS011;4472;52.092;9.820;2023-05-07T04:26:34;23.00;;;18.23;;
8871;SDS011;4472;52.092;9.820;2023-05-07T04:29:22;21.97;;;17.10;;
8871;SDS011;4472;52.092;9.820;2023-05-07T04:32:10;26.57;;;18.23;;
8871;SDS011;4472;52.092;9.820;2023-05-07T04:34:58;22.30;;;16.40;;
8871;SDS011;4472;52.092;9.820;2023-05-07T04:37:45;22.60;;;16.73;;
8871;SDS011;4472;52.092;9.820;2023-05-07T04:40:32;22.87;;;16.80;;
8871;SDS011;4472;52.092;9.820;2023-05-07T04:43:19;20.97;;;16.60;;
8871;SDS011;4472;52.092;9.820;2023-05-07T04:46:08;21.57;;;15.40;;
8871;SDS011;4472;52.092;9.820;2023-05-07T04:48:55;21.80;;;15.97;;
8871;SDS011;4472;52.092;9.820;2023-05-07T04:51:42;21.67;;;16.23;;
8871;SDS011;4472;52.092;9.820;2023-05-07T04:54:29;20.87;;;15.80;;
8871;SDS011;4472;52.092;9.820;2023-05-07T04:57:17;20.07;;;15.03;;
8871;SDS011;4472;52.092;9.820;2023-05-07T05:00:04;20.40;;;15.87;;
8871;SDS011;4472;52.092;9.820;2023-05-07T05:02:55;18.20;;;15.00;;
8871;SDS011;4472;52.092;9.820;2023-05-07T05:05:42;21.43;;;15.63;;
8871;SDS011;4472;52.092;9.820;2023-05-07T05:08:29;20.60;;;15.67;;
8871;SDS011;4472;52.092;9.820;2023-05-07T05:11:17;22.10;;;16.53;;
8871;SDS011;4472;52.092;9.820;2023-05-07T05:14:04;19.17;;;14.37;;
8871;SDS011;4472;52.092;9.820;2023-05-07T05:16:51;20.77;;;15.37;;
8871;SDS011;4472;52.092;9.820;2023-05-07T05:19:40;20.67;;;14.63;;
8871;SDS011;4472;52.092;9.820;2023-05-07T05:22:27;20.20;;;15.07;;
8871;SDS011;4472;52.092;9.820;2023-05-07T05:25:16;20.37;;;15.20;;
8871;SDS011;4472;52.092;9.820;2023-05-07T05:28:03;18.53;;;14.57;;
8871;SDS011;4472;52.092;9.820;2023-05-07T05:30:51;19.43;;;14.67;;
8871;SDS011;4472;52.092;9.820;2023-05-07T05:33:38;18.60;;;15.47;;
8871;SDS011;4472;52.092;9.820;2023-05-07T05:36:26;19.53;;;14.63;;
8871;SDS011;4472;52.092;9.820;2023-05-07T05:39:13;19.60;;;14.33;;
8871;SDS011;4472;52.092;9.820;2023-05-07T05:42:01;20.90;;;15.37;;
8871;SDS011;4472;52.092;9.820;2023-05-07T05:44:48;19.20;;;15.27;;
8871;SDS011;4472;52.092;9.820;2023-05-07T05:47:35;18.30;;;14.83;;
8871;SDS011;4472;52.092;9.820;2023-05-07T05:50:22;19.50;;;14.63;;
8871;SDS011;4472;52.092;9.820;2023-05-07T05:53:11;18.40;;;14.47;;
8871;SDS011;4472;52.092;9.820;2023-05-07T05:55:58;19.87;;;14.80;;
8871;SDS011;4472;52.092;9.820;2023-05-07T05:58:46;18.13;;;14.27;;
8871;SDS011;4472;52.092;9.820;2023-05-07T06:01:33;18.37;;;14.20;;
8871;SDS011;4472;52.092;9.820;2023-05-07T06:04:20;16.70;;;13.83;;
8871;SDS011;4472;52.092;9.820;2023-05-07T06:07:07;18.27;;;13.60;;
8871;SDS011;4472;52.092;9.820;2023-05-07T06:09:56;17.70;;;13.53;;
8871;SDS011;4472;52.092;9.820;2023-05-07T06:12:44;16.40;;;13.33;;
8871;SDS011;4472;52.092;9.820;2023-05-07T06:15:31;17.13;;;13.20;;
8871;SDS011;4472;52.092;9.820;2023-05-07T06:18:18;18.23;;;13.13;;
8871;SDS011;4472;52.092;9.820;2023-05-07T06:21:06;16.17;;;13.47;;
8871;SDS011;4472;52.092;9.820;2023-05-07T06:23:53;16.63;;;12.87;;
8871;SDS011;4472;52.092;9.820;2023-05-07T06:26:41;16.83;;;13.37;;
8871;SDS011;4472;52.092;9.820;2023-05-07T06:29:28;17.80;;;13.50;;
8871;SDS011;4472;52.092;9.820;2023-05-07T06:32:18;17.23;;;13.57;;
8871;SDS011;4472;52.092;9.820;2023-05-07T06:35:05;16.87;;;12.73;;
8871;SDS011;4472;52.092;9.820;2023-05-07T06:37:52;16.53;;;12.90;;
8871;SDS011;4472;52.092;9.820;2023-05-07T06:40:40;16.57;;;12.93;;
8871;SDS011;4472;52.092;9.820;2023-05-07T06:43:28;14.60;;;12.37;;
8871;SDS011;4472;52.092;9.820;2023-05-07T06:46:15;14.13;;;12.30;;
8871;SDS011;4472;52.092;9.820;2023-05-07T06:49:02;13.27;;;11.63;;
8871;SDS011;4472;52.092;9.820;2023-05-07T06:51:50;13.17;;;11.47;;
8871;SDS011;4472;52.092;9.820;2023-05-07T06:54:37;15.57;;;11.80;;
8871;SDS011;4472;52.092;9.820;2023-05-07T06:57:24;16.63;;;12.97;;
8871;SDS011;4472;52.092;9.820;2023-05-07T07:00:14;14.07;;;11.07;;
8871;SDS011;4472;52.092;9.820;2023-05-07T07:03:01;14.70;;;12.00;;
8871;SDS011;4472;52.092;9.820;2023-05-07T07:05:51;12.93;;;11.00;;
8871;SDS011;4472;52.092;9.820;2023-05-07T07:08:38;17.03;;;12.70;;
8871;SDS011;4472;52.092;9.820;2023-05-07T07:11:25;14.27;;;12.13;;
8871;SDS011;4472;52.092;9.820;2023-05-07T07:14:12;14.23;;;10.80;;
8871;SDS011;4472;52.092;9.820;2023-05-07T07:17:01;13.60;;;11.07;;
8871;SDS011;4472;52.092;9.820;2023-05-07T07:19:48;14.73;;;11.20;;
8871;SDS011;4472;52.092;9.820;2023-05-07T07:22:35;12.90;;;10.90;;
8871;SDS011;4472;52.092;9.820;2023-05-07T07:25:22;11.83;;;10.63;;
8871;SDS011;4472;52.092;9.820;2023-05-07T07:28:14;11.60;;;9.90;;
8871;SDS011;4472;52.092;9.820;2023-05-07T07:31:01;11.70;;;10.10;;
8871;SDS011;4472;52.092;9.820;2023-05-07T07:33:50;13.37;;;9.97;;
8871;SDS011;4472;52.092;9.820;2023-05-07T07:36:37;10.90;;;9.67;;
8871;SDS011;4472;52.092;9.820;2023-05-07T07:39:24;13.30;;;9.37;;
8871;SDS011;4472;52.092;9.820;2023-05-07T07:42:11;11.43;;;9.60;;
8871;SDS011;4472;52.092;9.820;2023-05-07T07:44:58;11.80;;;10.07;;
8871;SDS011;4472;52.092;9.820;2023-05-07T07:47:45;10.73;;;8.90;;
8871;SDS011;4472;52.092;9.820;2023-05-07T07:50:34;11.57;;;10.10;;
8871;SDS011;4472;52.092;9.820;2023-05-07T07:53:21;11.70;;;9.13;;
8871;SDS011;4472;52.092;9.820;2023-05-07T07:56:08;10.53;;;9.43;;
8871;SDS011;4472;52.092;9.820;2023-05-07T07:58:55;10.37;;;9.17;;
8871;SDS011;4472;52.092;9.820;2023-05-07T08:01:42;12.50;;;9.83;;
8871;SDS011;4472;52.092;9.820;2023-05-07T08:04:30;11.17;;;9.70;;
8871;SDS011;4472;52.092;9.820;2023-05-07T08:07:19;10.83;;;9.33;;
8871;SDS011;4472;52.092;9.820;2023-05-07T08:10:08;10.73;;;9.63;;
8871;SDS011;4472;52.092;9.820;2023-05-07T08:12:56;10.57;;;8.93;;
8871;SDS011;4472;52.092;9.820;2023-05-07T08:15:43;12.43;;;8.93;;
8871;SDS011;4472;52.092;9.820;2023-05-07T08:18:30;11.03;;;8.90;;
8871;SDS011;4472;52.092;9.820;2023-05-07T08:21:17;10.50;;;9.40;;
8871;SDS011;4472;52.092;9.820;2023-05-07T08:24:05;10.40;;;8.73;;
8871;SDS011;4472;52.092;9.820;2023-05-07T08:26:53;10.97;;;9.13;;
8871;SDS011;4472;52.092;9.820;2023-05-07T08:29:40;9.50;;;8.50;;
8871;SDS011;4472;52.092;9.820;2023-05-07T08:32:27;11.10;;;9.17;;
8871;SDS011;4472;52.092;9.820;2023-05-07T08:35:14;9.13;;;8.23;;
8871;SDS011;4472;52.092;9.820;2023-05-07T08:38:01;10.47;;;8.80;;
8871;SDS011;4472;52.092;9.820;2023-05-07T08:40:50;11.27;;;9.53;;
8871;SDS011;4472;52.092;9.820;2023-05-07T08:43:37;9.73;;;8.63;;
8871;SDS011;4472;52.092;9.820;2023-05-07T08:46:27;10.27;;;9.17;;
8871;SDS011;4472;52.092;9.820;2023-05-07T08:49:17;11.77;;;9.40;;
8871;SDS011;4472;52.092;9.820;2023-05-07T08:52:05;10.97;;;9.83;;
8871;SDS011;4472;52.092;9.820;2023-05-07T08:54:52;11.80;;;9.57;;
8871;SDS011;4472;52.092;9.820;2023-05-07T08:57:40;10.47;;;9.23;;
8871;SDS011;4472;52.092;9.820;2023-05-07T09:00:28;11.13;;;9.97;;
8871;SDS011;4472;52.092;9.820;2023-05-07T09:03:15;11.63;;;9.70;;
8871;SDS011;4472;52.092;9.820;2023-05-07T09:06:02;11.23;;;10.03;;
8871;SDS011;4472;52.092;9.820;2023-05-07T09:08:50;11.57;;;10.43;;
8871;SDS011;4472;52.092;9.820;2023-05-07T09:11:38;13.03;;;11.63;;
8871;SDS011;4472;52.092;9.820;2023-05-07T09:14:26;13.23;;;11.70;;
8871;SDS011;4472;52.092;9.820;2023-05-07T09:17:14;12.87;;;11.47;;
8871;SDS011;4472;52.092;9.820;2023-05-07T09:20:02;12.33;;;10.90;;
8871;SDS011;4472;52.092;9.820;2023-05-07T09:22:50;16.23;;;12.00;;
8871;SDS011;4472;52.092;9.820;2023-05-07T09:25:37;14.00;;;11.67;;
8871;SDS011;4472;52.092;9.820;2023-05-07T09:28:24;15.03;;;12.90;;
8871;SDS011;4472;52.092;9.820;2023-05-07T09:31:13;16.83;;;12.83;;
8871;SDS011;4472;52.092;9.820;2023-05-07T09:34:00;13.27;;;11.73;;
8871;SDS011;4472;52.092;9.820;2023-05-07T09:36:47;12.97;;;11.27;;
8871;SDS011;4472;52.092;9.820;2023-05-07T09:39:41;13.03;;;11.10;;
8871;SDS011;4472;52.092;9.820;2023-05-07T09:42:28;12.47;;;11.17;;
8871;SDS011;4472;52.092;9.820;2023-05-07T09:45:16;11.83;;;10.63;;
8871;SDS011;4472;52.092;9.820;2023-05-07T09:48:09;13.87;;;10.87;;
8871;SDS011;4472;52.092;9.820;2023-05-07T09:50:58;13.60;;;10.97;;
8871;SDS011;4472;52.092;9.820;2023-05-07T09:53:49;13.07;;;11.33;;
8871;SDS011;4472;52.092;9.820;2023-05-07T09:56:38;11.80;;;10.57;;
8871;SDS011;4472;52.092;9.820;2023-05-07T09:59:27;13.87;;;10.67;;
8871;SDS011;4472;52.092;9.820;2023-05-07T10:02:16;14.87;;;10.83;;
8871;SDS011;4472;52.092;9.820;2023-05-07T10:05:07;13.63;;;10.37;;
8871;SDS011;4472;52.092;9.820;2023-05-07T10:07:55;10.40;;;9.33;;
8871;SDS011;4472;52.092;9.820;2023-05-07T10:10:43;10.30;;;9.20;;
8871;SDS011;4472;52.092;9.820;2023-05-07T10:13:31;11.37;;;10.17;;
8871;SDS011;4472;52.092;9.820;2023-05-07T10:16:20;11.77;;;10.50;;
8871;SDS011;4472;52.092;9.820;2023-05-07T10:19:08;13.23;;;10.73;;
8871;SDS011;4472;52.092;9.820;2023-05-07T10:21:59;13.07;;;10.43;;
8871;SDS011;4472;52.092;9.820;2023-05-07T10:24:51;11.70;;;10.60;;
8871;SDS011;4472;52.092;9.820;2023-05-07T10:27:40;10.70;;;9.60;;
8871;SDS011;4472;52.092;9.820;2023-05-07T10:30:32;12.07;;;10.73;;
8871;SDS011;4472;52.092;9.820;2023-05-07T10:33:25;11.90;;;10.70;;
8871;SDS011;4472;52.092;9.820;2023-05-07T10:36:15;11.83;;;10.63;;
8871;SDS011;4472;52.092;9.820;2023-05-07T10:39:04;10.97;;;9.87;;
8871;SDS011;4472;52.092;9.820;2023-05-07T10:41:53;12.47;;;11.10;;
8871;SDS011;4472;52.092;9.820;2023-05-07T10:44:41;12.47;;;11.10;;
8871;SDS011;4472;52.092;9.820;2023-05-07T10:47:28;13.00;;;11.67;;
8871;SDS011;4472;52.092;9.820;2023-05-07T10:50:21;12.70;;;11.50;;
8871;SDS011;4472;52.092;9.820;2023-05-07T10:53:22;12.37;;;11.07;;
8871;SDS011;4472;52.092;9.820;2023-05-07T10:56:25;13.00;;;11.70;;
8871;SDS011;4472;52.092;9.820;2023-05-07T11:05:28;13.23;;;11.87;;
8871;SDS011;4472;52.092;9.820;2023-05-07T11:08:16;13.10;;;11.80;;
8871;SDS011;4472;52.092;9.820;2023-05-07T11:11:03;12.10;;;11.00;;
8871;SDS011;4472;52.092;9.820;2023-05-07T11:13:52;12.53;;;11.33;;
8871;SDS011;4472;52.092;9.820;2023-05-07T11:16:40;12.97;;;11.53;;
8871;SDS011;4472;52.092;9.820;2023-05-07T11:22:38;13.67;;;12.33;;
8871;SDS011;4472;52.092;9.820;2023-05-07T11:25:26;12.43;;;11.13;;
8871;SDS011;4472;52.092;9.820;2023-05-07T11:28:13;11.83;;;10.63;;
8871;SDS011;4472;52.092;9.820;2023-05-07T11:31:02;12.67;;;11.00;;
8871;SDS011;4472;52.092;9.820;2023-05-07T11:33:50;11.87;;;10.67;;
8871;SDS011;4472;52.092;9.820;2023-05-07T11:36:41;12.33;;;11.07;;
8871;SDS011;4472;52.092;9.820;2023-05-07T11:39:30;11.73;;;10.63;;
8871;SDS011;4472;52.092;9.820;2023-05-07T11:42:25;12.23;;;11.07;;
8871;SDS011;4472;52.092;9.820;2023-05-07T11:45:13;11.87;;;10.70;;
8871;SDS011;4472;52.092;9.820;2023-05-07T11:48:11;13.03;;;10.70;;
8871;SDS011;4472;52.092;9.820;2023-05-07T11:51:00;11.63;;;10.43;;
8871;SDS011;4472;52.092;9.820;2023-05-07T11:53:48;11.53;;;10.33;;
8871;SDS011;4472;52.092;9.820;2023-05-07T11:56:36;12.77;;;11.30;;
8871;SDS011;4472;52.092;9.820;2023-05-07T11:59:24;11.57;;;10.47;;
8871;SDS011;4472;52.092;9.820;2023-05-07T12:02:13;12.07;;;10.87;;
8871;SDS011;4472;52.092;9.820;2023-05-07T12:05:02;10.80;;;9.70;;
8871;SDS011;4472;52.092;9.820;2023-05-07T12:07:55;28.67;;;21.67;;
8871;SDS011;4472;52.092;9.820;2023-05-07T12:10:42;27.63;;;24.73;;
8871;SDS011;4472;52.092;9.820;2023-05-07T12:13:30;11.57;;;9.87;;
8871;SDS011;4472;52.092;9.820;2023-05-07T12:16:17;10.17;;;9.23;;
8871;SDS011;4472;52.092;9.820;2023-05-07T12:19:06;10.17;;;9.27;;
8871;SDS011;4472;52.092;9.820;2023-05-07T12:21:55;10.27;;;9.00;;
8871;SDS011;4472;52.092;9.820;2023-05-07T12:24:43;9.83;;;8.93;;
8871;SDS011;4472;52.092;9.820;2023-05-07T12:27:31;10.10;;;9.10;;
8871;SDS011;4472;52.092;9.820;2023-05-07T12:30:19;10.20;;;9.17;;
8871;SDS011;4472;52.092;9.820;2023-05-07T12:33:06;9.63;;;8.73;;
8871;SDS011;4472;52.092;9.820;2023-05-07T12:35:54;9.47;;;8.53;;
8871;SDS011;4472;52.092;9.820;2023-05-07T12:38:43;10.10;;;8.40;;
8871;SDS011;4472;52.092;9.820;2023-05-07T12:41:30;9.40;;;8.00;;
8871;SDS011;4472;52.092;9.820;2023-05-07T12:44:22;8.87;;;8.07;;
8871;SDS011;4472;52.092;9.820;2023-05-07T12:47:10;8.53;;;7.73;;
8871;SDS011;4472;52.092;9.820;2023-05-07T12:49:57;8.77;;;7.97;;
8871;SDS011;4472;52.092;9.820;2023-05-07T12:52:46;8.97;;;8.17;;
8871;SDS011;4472;52.092;9.820;2023-05-07T12:55:41;8.60;;;7.83;;
8871;SDS011;4472;52.092;9.820;2023-05-07T12:58:30;9.43;;;8.43;;
8871;SDS011;4472;52.092;9.820;2023-05-07T13:01:19;9.80;;;8.80;;
8871;SDS011;4472;52.092;9.820;2023-05-07T13:04:07;10.17;;;8.77;;
8871;SDS011;4472;52.092;9.820;2023-05-07T13:06:55;10.07;;;9.03;;
8871;SDS011;4472;52.092;9.820;2023-05-07T13:09:42;9.97;;;9.07;;
8871;SDS011;4472;52.092;9.820;2023-05-07T13:12:31;10.00;;;9.10;;
8871;SDS011;4472;52.092;9.820;2023-05-07T13:15:18;10.67;;;9.77;;
8871;SDS011;4472;52.092;9.820;2023-05-07T13:18:06;10.47;;;9.47;;
8871;SDS011;4472;52.092;9.820;2023-05-07T13:20:53;11.03;;;10.00;;
8871;SDS011;4472;52.092;9.820;2023-05-07T13:23:40;10.80;;;9.77;;
8871;SDS011;4472;52.092;9.820;2023-05-07T13:26:27;12.07;;;10.87;;
8871;SDS011;4472;52.092;9.820;2023-05-07T13:29:17;11.80;;;10.80;;
8871;SDS011;4472;52.092;9.820;2023-05-07T13:32:04;11.33;;;10.23;;
8871;SDS011;4472;52.092;9.820;2023-05-07T13:34:52;11.50;;;10.40;;
8871;SDS011;4472;52.092;9.820;2023-05-07T13:37:39;12.40;;;11.30;;
8871;SDS011;4472;52.092;9.820;2023-05-07T13:40:26;12.03;;;10.93;;
8871;SDS011;4472;52.092;9.820;2023-05-07T13:43:13;11.27;;;10.13;;
8871;SDS011;4472;52.092;9.820;2023-05-07T13:46:04;11.50;;;10.50;;
8871;SDS011;4472;52.092;9.820;2023-05-07T13:48:51;13.67;;;10.90;;
8871;SDS011;4472;52.092;9.820;2023-05-07T13:51:38;11.00;;;10.00;;
8871;SDS011;4472;52.092;9.820;2023-05-07T13:54:25;11.53;;;10.10;;
8871;SDS011;4472;52.092;9.820;2023-05-07T13:57:12;11.57;;;10.37;;
8871;SDS011;4472;52.092;9.820;2023-05-07T13:59:59;11.67;;;10.57;;
8871;SDS011;4472;52.092;9.820;2023-05-07T14:02:48;10.97;;;9.97;;
8871;SDS011;4472;52.092;9.820;2023-05-07T14:05:35;10.93;;;9.93;;
8871;SDS011;4472;52.092;9.820;2023-05-07T14:08:22;10.10;;;9.13;;
8871;SDS011;4472;52.092;9.820;2023-05-07T14:11:10;10.43;;;9.43;;
8871;SDS011;4472;52.092;9.820;2023-05-07T14:13:58;10.53;;;9.63;;
8871;SDS011;4472;52.092;9.820;2023-05-07T14:16:45;10.27;;;9.40;;
8871;SDS011;4472;52.092;9.820;2023-05-07T14:19:33;10.13;;;9.23;;
8871;SDS011;4472;52.092;9.820;2023-05-07T14:22:20;10.13;;;9.23;;
8871;SDS011;4472;52.092;9.820;2023-05-07T14:25:08;11.47;;;10.37;;
8871;SDS011;4472;52.092;9.820;2023-05-07T14:27:55;10.60;;;9.60;;
8871;SDS011;4472;52.092;9.820;2023-05-07T14:30:43;11.37;;;10.30;;
8871;SDS011;4472;52.092;9.820;2023-05-07T14:33:30;11.57;;;10.47;;
8871;SDS011;4472;52.092;9.820;2023-05-07T14:36:18;12.07;;;10.97;;
8871;SDS011;4472;52.092;9.820;2023-05-07T14:39:08;12.27;;;11.17;;
8871;SDS011;4472;52.092;9.820;2023-05-07T14:41:55;12.20;;;11.03;;
8871;SDS011;4472;52.092;9.820;2023-05-07T14:44:43;11.10;;;10.00;;
8871;SDS011;4472;52.092;9.820;2023-05-07T14:47:31;13.10;;;11.90;;
8871;SDS011;4472;52.092;9.820;2023-05-07T14:50:19;11.77;;;10.57;;
8871;SDS011;4472;52.092;9.820;2023-05-07T14:53:07;22.73;;;19.80;;
8871;SDS011;4472;52.092;9.820;2023-05-07T14:55:54;12.87;;;11.67;;
8871;SDS011;4472;52.092;9.820;2023-05-07T14:58:41;32.73;;;26.33;;
8871;SDS011;4472;52.092;9.820;2023-05-07T15:01:29;15.20;;;13.70;;
8871;SDS011;4472;52.092;9.820;2023-05-07T15:04:16;13.40;;;12.20;;
8871;SDS011;4472;52.092;9.820;2023-05-07T15:07:03;13.07;;;11.67;;
8871;SDS011;4472;52.092;9.820;2023-05-07T15:09:52;14.50;;;13.10;;
8871;SDS011;4472;52.092;9.820;2023-05-07T15:12:39;13.57;;;12.17;;
8871;SDS011;4472;52.092;9.820;2023-05-07T15:15:26;13.30;;;12.00;;
8871;SDS011;4472;52.092;9.820;2023-05-07T15:18:13;13.60;;;12.30;;
8871;SDS011;4472;52.092;9.820;2023-05-07T15:21:01;13.87;;;11.90;;
8871;SDS011;4472;52.092;9.820;2023-05-07T15:23:48;13.07;;;11.77;;
8871;SDS011;4472;52.092;9.820;2023-05-07T15:26:37;13.40;;;12.03;;
8871;SDS011;4472;52.092;9.820;2023-05-07T15:29:24;12.87;;;11.67;;
8871;SDS011;4472;52.092;9.820;2023-05-07T15:32:11;13.37;;;11.97;;
8871;SDS011;4472;52.092;9.820;2023-05-07T15:34:58;14.37;;;12.97;;
8871;SDS011;4472;52.092;9.820;2023-05-07T15:37:45;13.23;;;12.03;;
8871;SDS011;4472;52.092;9.820;2023-05-07T15:40:32;14.03;;;12.43;;
8871;SDS011;4472;52.092;9.820;2023-05-07T15:43:21;13.57;;;12.27;;
8871;SDS011;4472;52.092;9.820;2023-05-07T15:46:10;14.93;;;12.47;;
8871;SDS011;4472;52.092;9.820;2023-05-07T15:48:57;13.37;;;12.13;;
8871;SDS011;4472;52.092;9.820;2023-05-07T15:51:47;16.60;;;12.73;;
8871;SDS011;4472;52.092;9.820;2023-05-07T15:54:36;14.60;;;13.10;;
8871;SDS011;4472;52.092;9.820;2023-05-07T15:57:23;15.60;;;14.10;;
8871;SDS011;4472;52.092;9.820;2023-05-07T16:00:13;14.30;;;12.77;;
8871;SDS011;4472;52.092;9.820;2023-05-07T16:03:02;14.80;;;13.30;;
8871;SDS011;4472;52.092;9.820;2023-05-07T16:05:49;14.87;;;13.37;;
8871;SDS011;4472;52.092;9.820;2023-05-07T16:08:36;15.00;;;13.50;;
8871;SDS011;4472;52.092;9.820;2023-05-07T16:11:24;15.20;;;13.80;;
8871;SDS011;4472;52.092;9.820;2023-05-07T16:14:14;15.30;;;13.90;;
8871;SDS011;4472;52.092;9.820;2023-05-07T16:17:03;14.17;;;12.83;;
8871;SDS011;4472;52.092;9.820;2023-05-07T16:19:50;15.77;;;14.17;;
8871;SDS011;4472;52.092;9.820;2023-05-07T16:22:37;15.57;;;13.87;;
8871;SDS011;4472;52.092;9.820;2023-05-07T16:25:24;15.70;;;14.20;;
8871;SDS011;4472;52.092;9.820;2023-05-07T16:28:12;15.43;;;13.83;;
8871;SDS011;4472;52.092;9.820;2023-05-07T16:31:00;15.37;;;13.77;;
8871;SDS011;4472;52.092;9.820;2023-05-07T16:33:49;14.90;;;13.40;;
8871;SDS011;4472;52.092;9.820;2023-05-07T16:36:36;14.83;;;13.33;;
8871;SDS011;4472;52.092;9.820;2023-05-07T16:39:23;14.53;;;13.17;;
8871;SDS011;4472;52.092;9.820;2023-05-07T16:42:11;13.23;;;11.97;;
8871;SDS011;4472;52.092;9.820;2023-05-07T16:44:58;13.37;;;12.00;;
8871;SDS011;4472;52.092;9.820;2023-05-07T16:47:45;12.77;;;11.47;;
8871;SDS011;4472;52.092;9.820;2023-05-07T16:50:34;12.60;;;11.40;;
8871;SDS011;4472;52.092;9.820;2023-05-07T16:53:21;12.40;;;10.90;;
8871;SDS011;4472;52.092;9.820;2023-05-07T16:56:08;12.57;;;11.37;;
8871;SDS011;4472;52.092;9.820;2023-05-07T16:58:56;11.63;;;10.53;;
8871;SDS011;4472;52.092;9.820;2023-05-07T17:01:43;11.13;;;10.13;;
8871;SDS011;4472;52.092;9.820;2023-05-07T17:04:30;11.20;;;10.13;;